createdAt,value
2022-08-21T00:01:28.558Z,22.75
2022-08-21T00:04:07.747Z,22.76
2022-08-21T00:06:40.497Z,22.72
2022-08-21T00:09:13.374Z,22.71
2022-08-21T00:11:46.229Z,22.66
2022-08-21T00:14:18.829Z,22.65
2022-08-21T00:16:52.056Z,22.64
2022-08-21T00:19:27.030Z,22.59
2022-08-21T00:22:00.265Z,22.58
2022-08-21T00:24:33.230Z,22.56
2022-08-21T00:27:06.015Z,22.55
2022-08-21T00:29:39.114Z,22.48
2022-08-21T00:32:11.802Z,22.50
2022-08-21T00:34:45.986Z,22.43
2022-08-21T00:37:18.818Z,22.36
2022-08-21T00:39:51.826Z,22.40
2022-08-21T00:42:24.424Z,22.33
2022-08-21T00:44:57.178Z,22.31
2022-08-21T00:47:30.114Z,22.34
2022-08-21T00:50:05.563Z,22.30
2022-08-21T00:52:39.696Z,22.30
2022-08-21T00:55:14.031Z,22.25
2022-08-21T00:57:51.353Z,22.23
2022-08-21T01:00:28.922Z,22.21
2022-08-21T01:03:10.692Z,22.16
2022-08-21T01:05:46.639Z,22.15
2022-08-21T01:08:20.332Z,22.15
2022-08-21T01:10:55.015Z,22.11
2022-08-21T01:13:36.249Z,22.03
2022-08-21T01:16:11.588Z,22.04
2022-08-21T01:18:45.549Z,22.04
2022-08-21T01:21:22.178Z,22.05
2022-08-21T01:24:00.947Z,22.00
2022-08-21T01:26:36.557Z,21.96
2022-08-21T01:29:28.662Z,21.94
2022-08-21T01:32:08.313Z,21.92
2022-08-21T01:34:44.781Z,21.89
2022-08-21T01:37:20.652Z,21.90
2022-08-21T01:39:54.488Z,21.84
2022-08-21T01:42:27.535Z,21.86
2022-08-21T01:45:00.506Z,21.81
2022-08-21T01:47:33.706Z,21.82
2022-08-21T01:50:09.737Z,21.72
2022-08-21T01:52:44.086Z,21.75
2022-08-21T01:55:20.258Z,21.67
2022-08-21T01:57:53.369Z,21.67
2022-08-21T02:00:26.347Z,21.71
2022-08-21T02:02:59.137Z,21.68
2022-08-21T02:05:32.166Z,21.65
2022-08-21T02:08:08.241Z,21.63
2022-08-21T02:10:42.019Z,21.58
2022-08-21T02:13:21.976Z,21.60
2022-08-21T02:15:54.735Z,21.58
2022-08-21T02:18:27.623Z,21.54
2022-08-21T02:21:00.489Z,21.53
2022-08-21T02:23:35.354Z,21.51
2022-08-21T02:26:10.634Z,21.52
2022-08-21T02:28:43.638Z,21.47
2022-08-21T02:31:16.433Z,21.45
2022-08-21T02:33:51.687Z,21.40
2022-08-21T02:36:30.084Z,21.40
2022-08-21T02:39:05.653Z,21.46
2022-08-21T02:41:38.565Z,21.42
2022-08-21T02:44:11.823Z,21.44
2022-08-21T02:46:44.585Z,21.40
2022-08-21T02:49:17.397Z,21.39
2022-08-21T02:51:50.170Z,21.36
2022-08-21T02:54:24.466Z,21.33
2022-08-21T02:56:57.283Z,21.21
2022-08-21T02:59:30.121Z,21.17
2022-08-21T03:02:03.491Z,21.18
2022-08-21T03:04:36.471Z,21.12
2022-08-21T03:07:11.101Z,21.17
2022-08-21T03:09:55.220Z,21.08
2022-08-21T03:12:30.007Z,21.04
2022-08-21T03:15:03.376Z,21.05
2022-08-21T03:17:36.339Z,21.03
2022-08-21T03:20:11.087Z,21.00
2022-08-21T03:22:46.885Z,21.10
2022-08-21T03:25:39.722Z,21.04
2022-08-21T03:28:16.547Z,21.03
2022-08-21T03:30:51.739Z,21.03
2022-08-21T03:33:25.027Z,21.01
2022-08-21T03:36:05.741Z,20.96
2022-08-21T03:38:39.827Z,20.93
2022-08-21T03:41:14.001Z,20.90
2022-08-21T03:43:46.701Z,20.90
2022-08-21T03:46:20.185Z,20.93
2022-08-21T03:48:53.233Z,20.90
2022-08-21T03:51:25.814Z,20.88
2022-08-21T03:53:58.939Z,20.89
2022-08-21T03:56:33.147Z,20.87
2022-08-21T03:59:05.958Z,20.86
2022-08-21T04:01:39.928Z,20.79
2022-08-21T04:04:12.664Z,20.81
2022-08-21T04:06:46.995Z,20.83
2022-08-21T04:09:20.362Z,20.83
2022-08-21T04:11:54.947Z,20.80
2022-08-21T04:14:27.761Z,20.80
2022-08-21T04:17:00.739Z,20.79
2022-08-21T04:19:33.449Z,20.77
2022-08-21T04:22:06.379Z,20.77
2022-08-21T04:24:39.070Z,20.75
2022-08-21T04:27:13.417Z,20.76
2022-08-21T04:29:46.076Z,20.77
2022-08-21T04:32:23.295Z,20.67
2022-08-21T04:35:01.010Z,20.68
2022-08-21T04:37:34.064Z,20.66
2022-08-21T04:40:18.352Z,20.61
2022-08-21T04:42:55.159Z,20.62
2022-08-21T04:45:30.963Z,20.59
2022-08-21T04:48:10.717Z,20.66
2022-08-21T04:50:49.625Z,20.64
2022-08-21T04:53:25.678Z,20.63
2022-08-21T04:56:02.799Z,20.68
2022-08-21T04:58:38.535Z,20.59
2022-08-21T05:01:15.477Z,20.59
2022-08-21T05:03:52.523Z,20.60
2022-08-21T05:06:25.902Z,20.57
2022-08-21T05:09:01.964Z,20.66
2022-08-21T05:11:36.020Z,20.60
2022-08-21T05:14:10.460Z,20.59
2022-08-21T05:16:44.809Z,20.56
2022-08-21T05:19:17.579Z,20.50
2022-08-21T05:21:50.465Z,20.56
2022-08-21T05:24:23.107Z,20.51
2022-08-21T05:26:55.887Z,20.48
2022-08-21T05:29:32.358Z,20.49
2022-08-21T05:32:10.653Z,20.48
2022-08-21T05:34:43.700Z,20.48
2022-08-21T05:37:16.305Z,20.45
2022-08-21T05:40:21.123Z,20.53
2022-08-21T05:42:41.827Z,20.47
2022-08-21T05:45:16.114Z,20.41
2022-08-21T05:48:07.828Z,20.45
2022-08-21T05:50:41.138Z,20.48
2022-08-21T05:53:15.447Z,20.41
2022-08-21T05:55:50.200Z,20.48
2022-08-21T05:58:24.172Z,20.46
2022-08-21T06:00:59.667Z,20.46
2022-08-21T06:03:35.372Z,20.45
2022-08-21T06:06:08.826Z,20.49
2022-08-21T06:08:41.570Z,20.51
2022-08-21T06:11:14.623Z,20.47
2022-08-21T06:13:47.426Z,20.52
2022-08-21T06:16:23.157Z,20.46
2022-08-21T06:18:59.475Z,20.50
2022-08-21T06:21:34.882Z,20.47
2022-08-21T06:24:07.972Z,20.53
2022-08-21T06:26:40.569Z,20.58
2022-08-21T06:29:17.417Z,20.47
2022-08-21T06:31:52.920Z,20.56
2022-08-21T06:34:25.683Z,20.53
2022-08-21T06:36:58.406Z,20.53
2022-08-21T06:39:32.457Z,20.62
2022-08-21T06:42:10.586Z,20.56
2022-08-21T06:44:45.069Z,20.66
2022-08-21T06:47:19.420Z,20.63
2022-08-21T06:49:52.195Z,20.75
2022-08-21T06:52:27.434Z,20.74
2022-08-21T06:55:00.227Z,20.72
2022-08-21T06:57:32.996Z,20.76
2022-08-21T07:00:07.163Z,20.77
2022-08-21T07:02:41.617Z,20.86
2022-08-21T07:05:18.593Z,20.93
2022-08-21T07:07:51.700Z,20.98
2022-08-21T07:10:24.687Z,21.02
2022-08-21T07:13:00.289Z,21.12
2022-08-21T07:15:33.920Z,21.15
2022-08-21T07:18:08.755Z,21.20
2022-08-21T07:20:42.492Z,21.21
2022-08-21T07:23:24.062Z,21.30
2022-08-21T07:25:57.014Z,21.37
2022-08-21T07:28:30.323Z,21.47
2022-08-21T07:31:04.014Z,21.58
2022-08-21T07:33:38.418Z,21.67
2022-08-21T07:36:11.892Z,21.74
2022-08-21T07:38:44.915Z,21.84
2022-08-21T07:41:19.395Z,21.93
2022-08-21T07:43:53.035Z,22.01
2022-08-21T07:46:26.652Z,22.21
2022-08-21T07:49:00.807Z,22.38
2022-08-21T07:51:35.625Z,22.52
2022-08-21T07:54:10.475Z,22.69
2022-08-21T07:56:50.038Z,22.90
2022-08-21T07:59:22.977Z,23.07
2022-08-21T08:01:55.564Z,23.23
2022-08-21T08:04:29.776Z,23.24
2022-08-21T08:07:02.649Z,23.36
2022-08-21T08:09:35.433Z,23.48
2022-08-21T08:12:08.763Z,23.67
2022-08-21T08:14:42.227Z,23.75
2022-08-21T08:17:15.179Z,23.86
2022-08-21T08:19:49.522Z,24.02
2022-08-21T08:22:25.126Z,24.09
2022-08-21T08:24:58.251Z,24.44
2022-08-21T08:27:31.072Z,24.56
2022-08-21T08:30:03.922Z,24.69
2022-08-21T08:32:38.918Z,24.66
2022-08-21T08:35:14.442Z,24.78
2022-08-21T08:37:52.609Z,24.77
2022-08-21T08:40:34.169Z,24.87
2022-08-21T08:43:07.231Z,24.84
2022-08-21T08:45:43.578Z,24.85
2022-08-21T08:48:28.266Z,24.90
2022-08-21T08:51:04.976Z,24.90
2022-08-21T08:53:46.414Z,24.90
2022-08-21T08:56:27.979Z,24.88
2022-08-21T08:59:05.792Z,24.90
2022-08-21T09:01:39.326Z,24.90
2022-08-21T09:04:14.470Z,24.93
2022-08-21T09:07:11.578Z,24.91
2022-08-21T09:10:08.426Z,24.97
2022-08-21T09:12:52.638Z,24.92
2022-08-21T09:15:32.504Z,24.90
2022-08-21T09:18:29.321Z,24.84
2022-08-21T09:21:20.315Z,24.80
2022-08-21T09:24:02.918Z,24.74
2022-08-21T09:26:47.154Z,24.72
2022-08-21T09:29:24.431Z,24.64
2022-08-21T09:31:57.457Z,24.60
2022-08-21T09:34:32.540Z,24.58
2022-08-21T09:37:05.885Z,24.60
2022-08-21T09:39:46.878Z,24.62
2022-08-21T09:42:27.017Z,24.67
2022-08-21T09:45:11.770Z,24.69
2022-08-21T09:47:46.501Z,24.72
2022-08-21T09:50:22.754Z,24.74
2022-08-21T09:52:59.597Z,24.68
2022-08-21T09:55:57.601Z,24.67
2022-08-21T09:58:35.011Z,24.67
2022-08-21T10:01:09.316Z,24.78
2022-08-21T10:03:42.181Z,24.83
2022-08-21T10:06:26.705Z,24.93
2022-08-21T10:09:07.965Z,25.08
2022-08-21T10:11:49.485Z,25.14
2022-08-21T10:14:36.437Z,25.30
2022-08-21T10:17:22.733Z,25.49
2022-08-21T10:20:04.760Z,25.61
2022-08-21T10:22:45.816Z,25.80
2022-08-21T10:25:22.921Z,25.95
2022-08-21T10:28:12.883Z,26.23
2022-08-21T10:30:53.936Z,26.37
2022-08-21T10:33:40.857Z,26.52
2022-08-21T10:36:21.234Z,26.66
2022-08-21T10:39:23.767Z,26.85
2022-08-21T10:42:16.049Z,26.98
2022-08-21T10:45:00.012Z,27.21
2022-08-21T10:47:37.050Z,27.33
2022-08-21T10:50:20.430Z,27.39
2022-08-21T10:53:07.090Z,27.62
2022-08-21T10:55:45.680Z,27.77
2022-08-21T10:58:25.403Z,27.95
2022-08-21T11:01:06.034Z,28.04
2022-08-21T11:03:45.387Z,28.20
2022-08-21T11:06:23.728Z,28.28
2022-08-21T11:09:00.709Z,28.47
2022-08-21T11:11:38.622Z,28.53
2022-08-21T11:14:20.534Z,28.70
2022-08-21T11:17:02.794Z,28.77
2022-08-21T11:19:40.656Z,28.79
2022-08-21T11:22:18.544Z,29.02
2022-08-21T11:24:56.974Z,29.09
2022-08-21T11:27:40.685Z,29.24
2022-08-21T11:30:14.310Z,29.43
2022-08-21T11:33:06.834Z,29.50
2022-08-21T11:35:46.737Z,29.56
2022-08-21T11:38:29.317Z,29.70
2022-08-21T11:41:29.212Z,29.84
2022-08-21T11:44:11.844Z,30.05
2022-08-21T11:46:51.906Z,30.09
2022-08-21T11:49:44.934Z,30.23
2022-08-21T11:52:22.413Z,30.36
2022-08-21T11:55:00.387Z,30.48
2022-08-21T11:57:37.921Z,30.43
2022-08-21T12:00:18.756Z,30.60
2022-08-21T12:02:55.453Z,30.74
2022-08-21T12:05:36.015Z,30.73
2022-08-21T12:08:13.725Z,30.86
2022-08-21T12:11:00.786Z,30.87
2022-08-21T12:13:40.309Z,30.95
2022-08-21T12:16:17.629Z,31.13
2022-08-21T12:18:50.293Z,31.25
2022-08-21T12:21:26.969Z,31.25
2022-08-21T12:24:07.505Z,31.40
2022-08-21T12:26:51.471Z,31.51
2022-08-21T12:29:27.361Z,31.55
2022-08-21T12:32:02.576Z,31.63
2022-08-21T12:34:39.143Z,31.77
2022-08-21T12:37:23.628Z,31.79
2022-08-21T12:40:00.849Z,31.99
2022-08-21T12:42:39.480Z,32.04
2022-08-21T12:45:19.925Z,32.15
2022-08-21T12:47:59.016Z,32.09
2022-08-21T12:50:38.698Z,32.25
2022-08-21T12:53:23.594Z,32.40
2022-08-21T12:56:00.847Z,32.61
2022-08-21T12:58:33.947Z,32.74
2022-08-21T13:01:09.250Z,32.80
2022-08-21T13:03:43.188Z,32.95
2022-08-21T13:06:18.371Z,33.06
2022-08-21T13:08:58.039Z,33.02
2022-08-21T13:11:33.819Z,33.18
2022-08-21T13:14:16.406Z,33.24
2022-08-21T13:16:54.673Z,33.33
2022-08-21T13:19:28.798Z,33.38
2022-08-21T13:22:02.764Z,33.49
2022-08-21T13:24:56.769Z,33.48
2022-08-21T13:27:32.001Z,33.55
2022-08-21T13:30:13.281Z,33.59
2022-08-21T13:32:50.286Z,33.50
2022-08-21T13:35:27.755Z,33.40
2022-08-21T13:38:01.450Z,33.31
2022-08-21T13:40:47.455Z,33.24
2022-08-21T13:43:24.163Z,33.18
2022-08-21T13:45:58.072Z,33.03
2022-08-21T13:48:35.859Z,32.97
2022-08-21T13:51:09.040Z,32.90
2022-08-21T13:53:52.290Z,32.87
2022-08-21T13:56:28.945Z,32.78
2022-08-21T13:59:03.717Z,32.67
2022-08-21T14:01:40.940Z,32.62
2022-08-21T14:04:21.398Z,32.61
2022-08-21T14:06:55.174Z,32.55
2022-08-21T14:09:31.981Z,32.39
2022-08-21T14:12:23.532Z,32.21
2022-08-21T14:14:58.480Z,32.14
2022-08-21T14:17:36.278Z,32.04
2022-08-21T14:20:13.581Z,32.07
2022-08-21T14:22:48.857Z,32.04
2022-08-21T14:25:31.450Z,31.83
2022-08-21T14:28:19.633Z,31.79
2022-08-21T14:30:53.960Z,31.74
2022-08-21T14:33:29.650Z,31.70
2022-08-21T14:36:02.947Z,31.65
2022-08-21T14:38:37.923Z,31.57
2022-08-21T14:41:17.857Z,31.50
2022-08-21T14:44:06.103Z,31.40
2022-08-21T14:46:55.264Z,31.32
2022-08-21T14:49:31.609Z,31.32
2022-08-21T14:52:05.095Z,31.26
2022-08-21T14:54:37.799Z,31.24
2022-08-21T14:57:12.969Z,31.26
2022-08-21T14:59:47.337Z,31.25
2022-08-21T15:02:20.118Z,31.25
2022-08-21T15:04:52.907Z,31.27
2022-08-21T15:07:25.888Z,31.24
2022-08-21T15:09:58.815Z,31.22
2022-08-21T15:12:31.601Z,31.26
2022-08-21T15:15:07.703Z,31.26
2022-08-21T15:17:42.988Z,31.28
2022-08-21T15:20:17.811Z,31.36
2022-08-21T15:22:50.526Z,31.35
2022-08-21T15:25:23.323Z,31.43
2022-08-21T15:27:56.622Z,31.49
2022-08-21T15:30:32.174Z,31.46
2022-08-21T15:33:05.144Z,31.53
2022-08-21T15:35:38.602Z,31.54
2022-08-21T15:38:14.172Z,31.57
2022-08-21T15:40:51.663Z,31.59
2022-08-21T15:43:29.699Z,31.60
2022-08-21T15:46:06.727Z,31.47
2022-08-21T15:48:39.701Z,31.45
2022-08-21T15:51:13.102Z,31.42
2022-08-21T15:53:48.395Z,31.42
2022-08-21T15:56:25.102Z,31.44
2022-08-21T15:59:02.747Z,31.44
2022-08-21T16:01:44.606Z,31.45
2022-08-21T16:04:23.083Z,31.38
2022-08-21T16:07:03.194Z,31.41
2022-08-21T16:09:38.642Z,31.32
2022-08-21T16:12:15.647Z,31.24
2022-08-21T16:14:48.530Z,31.17
2022-08-21T16:17:31.491Z,31.12
2022-08-21T16:20:07.728Z,31.04
2022-08-21T16:22:44.762Z,30.96
2022-08-21T16:25:18.219Z,30.93
2022-08-21T16:27:58.931Z,30.89
2022-08-21T16:30:32.652Z,30.83
2022-08-21T16:33:08.476Z,30.76
2022-08-21T16:35:41.489Z,30.67
2022-08-21T16:38:14.822Z,30.61
2022-08-21T16:40:47.675Z,30.53
2022-08-21T16:43:21.604Z,30.48
2022-08-21T16:45:55.012Z,30.40
2022-08-21T16:48:30.413Z,30.34
2022-08-21T16:51:03.843Z,30.27
2022-08-21T16:53:36.525Z,30.18
2022-08-21T16:56:10.723Z,30.14
2022-08-21T16:58:47.512Z,30.08
2022-08-21T17:01:25.832Z,30.04
2022-08-21T17:04:00.983Z,29.94
2022-08-21T17:06:33.766Z,29.89
2022-08-21T17:09:06.747Z,29.83
2022-08-21T17:11:43.660Z,29.73
2022-08-21T17:14:19.888Z,29.65
2022-08-21T17:16:56.325Z,29.57
2022-08-21T17:19:30.474Z,29.51
2022-08-21T17:22:04.026Z,29.49
2022-08-21T17:24:37.666Z,29.41
2022-08-21T17:27:10.598Z,29.39
2022-08-21T17:29:43.467Z,29.35
2022-08-21T17:32:17.915Z,29.25
2022-08-21T17:34:52.116Z,29.19
2022-08-21T17:37:29.078Z,29.16
2022-08-21T17:40:02.469Z,29.11
2022-08-21T17:42:35.436Z,29.05
2022-08-21T17:45:11.349Z,28.97
2022-08-21T17:47:44.759Z,28.96
2022-08-21T17:50:22.727Z,28.89
2022-08-21T17:52:55.815Z,28.79
2022-08-21T17:55:30.025Z,28.71
2022-08-21T17:58:04.108Z,28.65
2022-08-21T18:00:37.794Z,28.60
2022-08-21T18:03:15.038Z,28.53
2022-08-21T18:05:53.847Z,28.52
2022-08-21T18:08:26.993Z,28.46
2022-08-21T18:11:00.786Z,28.34
2022-08-21T18:13:37.445Z,28.29
2022-08-21T18:16:12.593Z,28.28
2022-08-21T18:18:46.118Z,28.23
2022-08-21T18:21:20.901Z,28.15
2022-08-21T18:23:55.186Z,28.08
2022-08-21T18:26:31.683Z,28.04
2022-08-21T18:29:07.637Z,27.97
2022-08-21T18:31:43.646Z,27.91
2022-08-21T18:34:26.056Z,27.85
2022-08-21T18:37:00.250Z,27.80
2022-08-21T18:39:37.507Z,27.63
2022-08-21T18:42:13.114Z,27.52
2022-08-21T18:44:48.160Z,27.46
2022-08-21T18:47:24.218Z,27.41
2022-08-21T18:49:56.962Z,27.38
2022-08-21T18:52:31.119Z,27.31
2022-08-21T18:55:05.862Z,27.25
2022-08-21T18:57:42.378Z,27.18
2022-08-21T19:00:24.437Z,27.19
2022-08-21T19:02:58.374Z,27.03
2022-08-21T19:05:31.772Z,26.98
2022-08-21T19:08:06.348Z,26.92
2022-08-21T19:10:40.038Z,26.91
2022-08-21T19:13:18.745Z,26.87
2022-08-21T19:15:53.362Z,26.81
2022-08-21T19:18:28.659Z,26.75
2022-08-21T19:21:01.478Z,26.66
2022-08-21T19:23:35.766Z,26.59
2022-08-21T19:26:10.692Z,26.46
2022-08-21T19:28:46.197Z,26.40
2022-08-21T19:31:23.660Z,26.36
2022-08-21T19:34:02.956Z,26.30
2022-08-21T19:36:35.940Z,26.18
2022-08-21T19:39:12.678Z,26.15
2022-08-21T19:41:48.938Z,26.10
2022-08-21T19:44:26.752Z,26.03
2022-08-21T19:47:05.561Z,25.94
2022-08-21T19:49:38.921Z,25.99
2022-08-21T19:52:13.831Z,25.95
2022-08-21T19:54:48.492Z,25.94
2022-08-21T19:57:21.323Z,25.91
2022-08-21T19:59:53.969Z,25.80
2022-08-21T20:02:27.868Z,25.79
2022-08-21T20:05:01.108Z,25.73
2022-08-21T20:07:34.494Z,25.63
2022-08-21T20:10:10.548Z,25.61
2022-08-21T20:12:45.666Z,25.58
2022-08-21T20:15:22.487Z,25.52
2022-08-21T20:17:55.845Z,25.50
2022-08-21T20:20:28.777Z,25.50
2022-08-21T20:23:10.683Z,25.42
2022-08-21T20:25:46.077Z,25.45
2022-08-21T20:28:18.948Z,25.40
2022-08-21T20:30:54.521Z,25.33
2022-08-21T20:33:27.405Z,25.37
2022-08-21T20:36:00.664Z,25.33
2022-08-21T20:38:33.572Z,25.26
2022-08-21T20:41:21.007Z,25.27
2022-08-21T20:43:56.467Z,25.17
2022-08-21T20:46:33.213Z,25.10
2022-08-21T20:49:09.183Z,25.07
2022-08-21T20:51:47.023Z,25.06
2022-08-21T20:54:26.562Z,25.02
2022-08-21T20:57:13.646Z,25.01
2022-08-21T20:59:55.827Z,24.93
2022-08-21T21:02:47.037Z,24.92
2022-08-21T21:05:22.898Z,24.89
2022-08-21T21:08:01.529Z,24.86
2022-08-21T21:10:42.410Z,24.83
2022-08-21T21:13:23.993Z,24.85
2022-08-21T21:16:00.958Z,24.75
2022-08-21T21:18:41.414Z,24.78
2022-08-21T21:21:21.508Z,24.70
2022-08-21T21:24:00.909Z,24.80
2022-08-21T21:26:39.720Z,24.70
2022-08-21T21:29:23.857Z,24.65
2022-08-21T21:31:57.226Z,24.63
2022-08-21T21:34:36.965Z,24.63
2022-08-21T21:37:23.095Z,24.61
2022-08-21T21:40:05.291Z,24.58
2022-08-21T21:42:49.323Z,24.55
2022-08-21T21:45:27.707Z,24.52
2022-08-21T21:48:13.310Z,24.51
2022-08-21T21:50:53.530Z,24.48
2022-08-21T21:53:42.392Z,24.45
2022-08-21T21:56:27.578Z,24.44
2022-08-21T21:59:20.471Z,24.39
2022-08-21T22:02:06.916Z,24.38
2022-08-21T22:04:51.490Z,24.38
2022-08-21T22:07:35.357Z,24.37
2022-08-21T22:16:09.673Z,24.23
2022-08-21T22:18:54.746Z,24.23
2022-08-21T22:21:33.088Z,24.19
2022-08-21T22:24:13.696Z,24.16
2022-08-21T22:26:50.714Z,24.17
2022-08-21T22:29:24.864Z,24.12
2022-08-21T22:32:06.833Z,24.10
2022-08-21T22:34:42.320Z,24.03
2022-08-21T22:37:15.553Z,24.04
2022-08-21T22:39:55.489Z,24.02
2022-08-21T22:42:29.772Z,24.02
2022-08-21T22:45:09.415Z,23.97
2022-08-21T22:48:11.132Z,23.95
2022-08-21T22:50:57.717Z,23.95
2022-08-21T22:53:34.475Z,23.98
2022-08-21T22:56:08.736Z,23.92
2022-08-21T22:58:56.301Z,23.87
2022-08-21T23:01:40.184Z,23.90
2022-08-21T23:04:21.654Z,23.82
2022-08-21T23:06:58.186Z,23.81
2022-08-21T23:09:35.652Z,23.80
2022-08-21T23:12:33.898Z,23.82
2022-08-21T23:15:11.503Z,23.76
2022-08-21T23:17:51.971Z,23.71
2022-08-21T23:20:32.127Z,23.69
2022-08-21T23:23:17.910Z,23.68
2022-08-21T23:26:17.683Z,23.77
2022-08-21T23:29:24.756Z,23.75
2022-08-21T23:32:13.392Z,23.73
2022-08-21T23:35:00.343Z,23.71
2022-08-21T23:37:51.610Z,23.71
2022-08-21T23:40:50.593Z,23.66
2022-08-21T23:43:39.408Z,23.68
2022-08-21T23:46:37.332Z,23.73
2022-08-21T23:49:19.728Z,23.57
2022-08-21T23:52:01.031Z,23.53
2022-08-21T23:54:48.311Z,23.50
2022-08-21T23:57:33.856Z,23.48
